Time;durP1;ratioP1;P1;durP2;ratioP2;P2;SDS_P1;SDS_P2;PMS_P1;PMS_P2;Temp;Humidity;BMP_temperature;BMP_pressure;BME280_temperature;BME280_humidity;BME280_pressure;Samples;Min_cycle;Max_cycle;Signal;HPM_P1;HPM_P2
2023/10/25 00:00:29;;;;;;;4.13;3.73;;;;;;;10.56;100.00;154071.75;5007726;28;20522;-75
2023/10/25 00:02:55;;;;;;;4.90;4.37;;;;;;;10.56;100.00;154071.75;5026966;28;20525;-75
2023/10/25 00:05:22;;;;;;;5.50;4.90;;;;;;;10.53;100.00;154062.66;5004810;28;20529;-75
2023/10/25 00:07:49;;;;;;;6.30;4.50;;;;;;;10.54;100.00;154066.53;5009131;28;20532;-75
2023/10/25 00:10:16;;;;;;;5.87;4.80;;;;;;;10.48;100.00;154051.03;5024183;28;20455;-76
2023/10/25 00:12:43;;;;;;;6.83;5.30;;;;;;;10.40;100.00;154030.31;5008276;28;20494;-75
2023/10/25 00:15:10;;;;;;;5.77;4.90;;;;;;;10.35;100.00;154017.38;5008332;28;21141;-75
2023/10/25 00:17:36;;;;;;;6.20;4.70;;;;;;;10.29;100.00;154001.81;5028169;28;20457;-76
2023/10/25 00:20:03;;;;;;;5.77;4.73;;;;;;;10.30;100.00;154005.69;5022231;28;20570;-75
2023/10/25 00:22:30;;;;;;;6.03;5.10;;;;;;;10.29;100.00;154003.13;5018077;28;20478;-75
2023/10/25 00:24:58;;;;;;;5.60;4.70;;;;;;;10.29;100.00;154003.13;5025100;28;20526;-75
2023/10/25 00:27:24;;;;;;;5.90;5.03;;;;;;;10.26;100.00;153994.03;5027261;28;20447;-75
2023/10/25 00:29:51;;;;;;;5.33;4.40;;;;;;;10.23;100.00;153986.28;5004235;28;20995;-75
2023/10/25 00:32:17;;;;;;;6.07;5.37;;;;;;;10.20;100.00;153979.81;5001365;28;20448;-76
2023/10/25 00:34:44;;;;;;;4.90;4.20;;;;;;;10.16;100.00;153969.47;5008757;28;20463;-75
2023/10/25 00:37:10;;;;;;;5.20;4.40;;;;;;;10.17;100.00;153970.72;5006772;28;20550;-75
2023/10/25 00:39:37;;;;;;;5.40;4.63;;;;;;;10.14;100.00;153963.00;5026687;28;20519;-76
2023/10/25 00:42:06;;;;;;;4.97;4.13;;;;;;;10.13;100.00;153960.41;4991780;28;20973;-75
2023/10/25 00:44:32;;;;;;;4.70;4.20;;;;;;;10.10;100.00;153953.88;5008064;28;20451;-76
2023/10/25 00:46:59;;;;;;;6.00;4.80;;;;;;;10.12;100.00;153957.72;5007129;28;20460;-76
2023/10/25 00:49:25;;;;;;;6.10;4.50;;;;;;;10.09;100.00;153949.97;5024973;28;20480;-75
2023/10/25 00:51:52;;;;;;;6.00;4.90;;;;;;;10.15;100.00;153966.88;5026988;28;20490;-75
2023/10/25 00:54:19;;;;;;;6.43;4.30;;;;;;;10.23;100.00;153986.28;5007692;28;20464;-76
2023/10/25 00:56:46;;;;;;;6.13;4.83;;;;;;;10.23;100.00;153986.28;5012126;28;20450;-75
2023/10/25 00:59:15;;;;;;;5.27;4.77;;;;;;;10.19;100.00;153977.19;5021959;28;21190;-76
2023/10/25 01:01:42;;;;;;;6.57;5.87;;;;;;;10.20;100.00;153978.50;5028628;28;20443;-75
2023/10/25 01:04:09;;;;;;;7.90;6.97;;;;;;;10.21;100.00;153981.09;5011565;28;20459;-75
2023/10/25 01:06:35;;;;;;;7.87;7.03;;;;;;;10.19;100.00;153975.94;5024325;28;20459;-75
2023/10/25 01:09:02;;;;;;;14.13;7.90;;;;;;;10.19;100.00;153975.94;5027510;28;20455;-75
2023/10/25 01:11:28;;;;;;;17.57;9.63;;;;;;;10.21;100.00;153982.41;5008672;28;20542;-75
2023/10/25 01:13:55;;;;;;;12.20;8.07;;;;;;;10.22;100.00;153983.66;5029772;28;20451;-76
2023/10/25 01:16:23;;;;;;;60.37;11.60;;;;;;;10.24;100.00;153990.19;5010186;28;20454;-76
2023/10/25 01:18:49;;;;;;;21.70;8.90;;;;;;;10.23;100.00;153986.28;5010626;28;21022;-76
2023/10/25 01:21:16;;;;;;;14.10;8.90;;;;;;;10.21;100.00;153982.41;5027753;28;20455;-75
2023/10/25 01:23:44;;;;;;;9.50;8.00;;;;;;;10.20;100.00;153978.50;5028472;28;20521;-75
2023/10/25 01:26:11;;;;;;;10.60;6.93;;;;;;;10.17;100.00;153972.03;5021334;28;21030;-76
2023/10/25 01:28:37;;;;;;;7.93;6.17;;;;;;;10.21;100.00;153982.41;5008651;28;20461;-75
2023/10/25 01:31:05;;;;;;;11.43;7.10;;;;;;;10.21;100.00;153982.41;5030005;28;20448;-75
2023/10/25 01:33:32;;;;;;;9.13;7.20;;;;;;;10.19;100.00;153975.94;5009700;28;20459;-75
2023/10/25 01:35:58;;;;;;;11.07;7.63;;;;;;;10.18;100.00;153974.63;5029073;28;20455;-75
2023/10/25 01:38:25;;;;;;;9.30;7.97;;;;;;;10.13;100.00;153960.41;5013016;28;20710;-75
2023/10/25 01:40:53;;;;;;;7.67;6.10;;;;;;;10.14;100.00;153963.00;5017521;28;20470;-75
2023/10/25 01:43:20;;;;;;;8.40;6.47;;;;;;;10.12;100.00;153957.72;5008003;28;20460;-75
2023/10/25 01:45:47;;;;;;;7.20;5.90;;;;;;;10.09;100.00;153951.25;5010903;28;20857;-75
2023/10/25 01:48:14;;;;;;;5.93;5.33;;;;;;;10.07;100.00;153944.81;5027692;28;20467;-75
2023/10/25 01:50:40;;;;;;;7.00;5.80;;;;;;;10.10;100.00;153952.56;5011176;28;20509;-75
2023/10/25 01:53:07;;;;;;;6.70;5.90;;;;;;;10.07;100.00;153944.81;5010831;28;20467;-75
2023/10/25 01:55:33;;;;;;;7.87;5.80;;;;;;;10.08;100.00;153947.41;5027391;28;20474;-75
2023/10/25 01:58:02;;;;;;;7.03;5.80;;;;;;;10.05;100.00;153939.63;5012440;28;20491;-75
2023/10/25 02:00:29;;;;;;;6.60;5.60;;;;;;;9.96;100.00;153916.31;4993451;28;20486;-75
2023/10/25 02:02:55;;;;;;;6.13;5.23;;;;;;;9.94;100.00;153912.47;5019953;28;20447;-75
2023/10/25 02:05:22;;;;;;;6.97;6.30;;;;;;;9.90;100.00;153900.81;5022003;28;20459;-75
2023/10/25 02:07:49;;;;;;;5.57;4.97;;;;;;;9.84;100.00;153886.59;5019348;28;20881;-75
2023/10/25 02:10:18;;;;;;;5.37;4.60;;;;;;;9.79;100.00;153873.66;4990115;28;20463;-75
2023/10/25 02:12:45;;;;;;;5.40;4.77;;;;;;;9.76;100.00;153867.19;5012216;28;20530;-75
2023/10/25 02:15:13;;;;;;;5.40;4.73;;;;;;;9.80;100.00;153877.50;5009678;28;20892;-75
2023/10/25 02:17:39;;;;;;;7.60;6.10;;;;;;;9.77;100.00;153868.44;5022079;28;20981;-75
2023/10/25 02:20:07;;;;;;;6.90;4.77;;;;;;;9.74;100.00;153861.97;5029025;28;20479;-75
2023/10/25 02:22:33;;;;;;;4.63;3.93;;;;;;;9.73;100.00;153859.41;5010466;28;20451;-75
2023/10/25 02:25:00;;;;;;;5.10;4.60;;;;;;;9.72;100.00;153855.50;5003863;28;20468;-75
2023/10/25 02:27:27;;;;;;;5.43;4.70;;;;;;;9.69;100.00;153849.03;5006261;28;20452;-75
2023/10/25 02:29:53;;;;;;;6.00;5.40;;;;;;;9.67;100.00;153843.88;5022431;28;20522;-74
2023/10/25 02:32:21;;;;;;;5.77;5.17;;;;;;;9.67;100.00;153843.88;5028258;28;20455;-75
2023/10/25 02:34:47;;;;;;;6.27;4.93;;;;;;;9.67;100.00;153842.56;5009641;28;20554;-75
2023/10/25 02:37:14;;;;;;;5.83;4.90;;;;;;;9.69;100.00;153849.03;5024576;28;20468;-75
2023/10/25 02:39:42;;;;;;;5.83;5.23;;;;;;;9.67;100.00;153843.88;5036436;28;20483;-75
2023/10/25 02:42:08;;;;;;;5.80;4.47;;;;;;;9.64;100.00;153836.09;5022540;28;20542;-75
2023/10/25 02:44:35;;;;;;;16.23;5.10;;;;;;;9.64;100.00;153834.81;5008191;28;20456;-75
2023/10/25 02:47:01;;;;;;;5.77;5.10;;;;;;;9.62;100.00;153830.94;5029500;28;20458;-74
2023/10/25 02:49:29;;;;;;;6.90;5.30;;;;;;;9.59;100.00;153821.88;5011734;28;20451;-75
2023/10/25 02:51:56;;;;;;;7.10;5.90;;;;;;;9.54;100.00;153810.25;5026744;28;20504;-74
2023/10/25 02:54:22;;;;;;;5.30;4.80;;;;;;;9.53;100.00;153807.63;5028825;28;20490;-74
2023/10/25 02:56:49;;;;;;;5.97;5.17;;;;;;;9.52;100.00;153805.06;5006172;28;20460;-74
2023/10/25 02:59:15;;;;;;;6.03;5.30;;;;;;;9.49;100.00;153797.31;5008564;28;20476;-74
2023/10/25 03:01:42;;;;;;;5.73;4.83;;;;;;;9.49;100.00;153797.31;5024164;28;20455;-75
2023/10/25 03:04:09;;;;;;;6.67;5.77;;;;;;;9.48;100.00;153794.69;4994218;28;20459;-74
2023/10/25 03:06:36;;;;;;;6.00;5.07;;;;;;;9.44;100.00;153784.38;5025331;28;20502;-74
2023/10/25 03:09:05;;;;;;;6.97;4.77;;;;;;;9.37;100.00;153766.22;5026603;28;20464;-74
2023/10/25 03:11:31;;;;;;;5.60;4.43;;;;;;;9.38;100.00;153768.84;5024403;28;20459;-75
2023/10/25 03:13:58;;;;;;;5.60;4.73;;;;;;;9.38;100.00;153768.84;5009926;28;20482;-74
2023/10/25 03:16:25;;;;;;;6.00;5.10;;;;;;;9.37;100.00;153766.22;5010224;28;20829;-74
2023/10/25 03:18:52;;;;;;;7.47;4.93;;;;;;;9.39;100.00;153770.13;5023080;28;20463;-75
2023/10/25 03:21:18;;;;;;;7.57;4.83;;;;;;;9.37;100.00;153766.22;5026875;28;20493;-75
2023/10/25 03:23:46;;;;;;;6.87;5.70;;;;;;;9.32;100.00;153753.31;5027945;28;20517;-75
2023/10/25 03:26:13;;;;;;;6.50;4.90;;;;;;;9.29;100.00;153744.28;5026042;28;20911;-75
2023/10/25 03:28:40;;;;;;;5.30;4.40;;;;;;;9.27;100.00;153740.38;5027329;28;20459;-74
2023/10/25 03:31:07;;;;;;;5.77;5.07;;;;;;;9.23;100.00;153730.03;5026726;28;20206;-75
2023/10/25 03:33:33;;;;;;;7.43;6.30;;;;;;;9.27;100.00;153739.06;5009194;28;20455;-75
2023/10/25 03:36:01;;;;;;;6.23;5.50;;;;;;;9.29;100.00;153745.59;5025326;28;20459;-75
2023/10/25 03:38:27;;;;;;;6.10;5.37;;;;;;;9.27;100.00;153740.38;5014577;28;20472;-75
2023/10/25 03:41:03;;;;;;;7.03;6.20;;;;;;;9.22;100.00;153727.44;5032024;28;20487;-74
2023/10/25 03:43:29;;;;;;;8.60;6.97;;;;;;;9.22;100.00;153727.44;5023987;28;20570;-74
2023/10/25 03:45:56;;;;;;;8.63;7.37;;;;;;;9.24;100.00;153731.34;5024139;28;20573;-74
2023/10/25 03:48:22;;;;;;;9.80;8.30;;;;;;;9.26;100.00;153736.50;5025106;28;20455;-75
2023/10/25 03:50:50;;;;;;;7.37;6.07;;;;;;;9.20;100.00;153722.28;5024401;28;20447;-74
2023/10/25 03:53:17;;;;;;;9.23;6.83;;;;;;;9.14;100.00;153706.75;5011876;28;20455;-74
2023/10/25 03:55:52;;;;;;;8.20;7.40;;;;;;;9.10;100.00;153696.41;5007806;28;20456;-74
2023/10/25 03:58:20;;;;;;;6.80;6.03;;;;;;;9.08;100.00;153692.50;5013355;28;20447;-74
2023/10/25 04:00:47;;;;;;;8.70;7.00;;;;;;;9.09;100.00;153693.81;5022618;28;20487;-75
2023/10/25 04:03:14;;;;;;;8.10;6.63;;;;;;;9.08;100.00;153692.50;5027694;28;20790;-75
2023/10/25 04:05:41;;;;;;;8.50;6.50;;;;;;;8.98;100.00;153666.66;5001416;28;20460;-75
2023/10/25 04:08:08;;;;;;;9.10;6.77;;;;;;;8.95;100.00;153657.59;5009517;28;20807;-75
2023/10/25 04:10:35;;;;;;;9.57;7.53;;;;;;;8.90;100.00;153645.97;5026639;28;20481;-75
2023/10/25 04:13:01;;;;;;;9.90;7.70;;;;;;;8.88;100.00;153639.50;5042797;28;20451;-75
2023/10/25 04:15:30;;;;;;;8.27;6.80;;;;;;;8.85;100.00;153631.75;5026986;28;20841;-75
2023/10/25 04:17:57;;;;;;;8.13;6.70;;;;;;;8.79;100.00;153617.50;5026397;28;20440;-74
2023/10/25 04:20:23;;;;;;;8.90;7.03;;;;;;;8.81;100.00;153621.41;5027888;28;20482;-75
2023/10/25 04:22:49;;;;;;;7.33;6.53;;;;;;;8.79;100.00;153616.25;5025091;28;20462;-74
2023/10/25 04:25:15;;;;;;;7.33;6.30;;;;;;;8.80;100.00;153620.13;5027188;28;20938;-75
2023/10/25 04:27:42;;;;;;;9.83;7.80;;;;;;;8.78;100.00;153613.66;5009116;28;20258;-74
2023/10/25 04:30:11;;;;;;;10.13;7.10;;;;;;;8.73;100.00;153600.72;5037803;28;20454;-74
2023/10/25 04:32:38;;;;;;;8.50;6.90;;;;;;;8.70;100.00;153592.97;5030208;28;20884;-74
2023/10/25 04:35:05;;;;;;;8.67;6.90;;;;;;;8.70;100.00;153592.97;5031604;28;20502;-74
2023/10/25 04:37:32;;;;;;;10.00;7.87;;;;;;;8.67;100.00;153585.22;5010378;28;20444;-74
2023/10/25 04:39:58;;;;;;;14.70;7.57;;;;;;;8.65;100.00;153580.03;5013673;28;20993;-74
2023/10/25 04:42:25;;;;;;;8.70;7.37;;;;;;;8.63;100.00;153574.88;5031098;28;20598;-74
2023/10/25 04:44:52;;;;;;;8.87;6.97;;;;;;;8.63;100.00;153576.13;5028539;28;20458;-74
2023/10/25 04:47:18;;;;;;;8.80;7.20;;;;;;;8.60;100.00;153567.13;5025638;28;20450;-74
2023/10/25 04:49:46;;;;;;;8.30;6.70;;;;;;;8.58;100.00;153564.53;5027373;28;20898;-75
2023/10/25 04:52:13;;;;;;;8.30;6.43;;;;;;;8.54;100.00;153554.19;5017514;28;20452;-74
2023/10/25 04:54:43;;;;;;;7.43;6.67;;;;;;;8.46;100.00;153533.53;5023273;28;20552;-74
2023/10/25 04:57:09;;;;;;;7.30;5.97;;;;;;;8.47;100.00;153534.81;5012105;28;20533;-74
2023/10/25 04:59:36;;;;;;;7.57;6.43;;;;;;;8.44;100.00;153528.34;5007412;28;20462;-75
2023/10/25 05:02:05;;;;;;;7.27;5.53;;;;;;;8.41;100.00;153520.59;5040506;28;20513;-75
2023/10/25 05:04:32;;;;;;;8.63;6.43;;;;;;;8.37;100.00;153508.94;5027199;28;20464;-75
2023/10/25 05:07:01;;;;;;;5.70;5.07;;;;;;;8.32;100.00;153497.31;5008401;28;20534;-75
2023/10/25 05:09:28;;;;;;;6.57;5.83;;;;;;;8.33;100.00;153498.63;5025287;28;20459;-75
2023/10/25 05:11:57;;;;;;;7.23;5.87;;;;;;;8.32;100.00;153496.00;5000304;28;20569;-74
2023/10/25 05:14:24;;;;;;;7.70;5.60;;;;;;;8.32;100.00;153496.00;5020896;28;20479;-74
2023/10/25 05:16:51;;;;;;;7.90;6.90;;;;;;;8.31;100.00;153494.72;5022255;28;20448;-74
2023/10/25 05:19:24;;;;;;;6.80;5.60;;;;;;;8.30;100.00;153492.16;5019730;28;20880;-74
2023/10/25 05:21:52;;;;;;;7.60;6.37;;;;;;;8.25;100.00;153479.19;5021654;28;20487;-73
2023/10/25 05:24:23;;;;;;;6.30;5.70;;;;;;;8.28;100.00;153487.00;5020104;28;20463;-74
2023/10/25 05:26:51;;;;;;;8.00;5.77;;;;;;;8.28;100.00;153485.69;5021743;28;20837;-74
2023/10/25 05:29:18;;;;;;;4.90;4.40;;;;;;;8.25;100.00;153477.88;5022354;28;21026;-74
2023/10/25 05:31:48;;;;;;;5.80;5.10;;;;;;;8.24;100.00;153475.28;5022262;28;20881;-75
2023/10/25 05:34:15;;;;;;;6.33;5.63;;;;;;;8.25;100.00;153479.19;5023188;28;20860;-74
2023/10/25 05:36:42;;;;;;;7.10;5.93;;;;;;;8.27;100.00;153484.41;5022791;28;20448;-74
2023/10/25 05:39:09;;;;;;;6.63;5.40;;;;;;;8.24;100.00;153476.59;5023023;28;20848;-74
2023/10/25 05:41:40;;;;;;;7.40;5.97;;;;;;;8.21;100.00;153467.50;5018339;28;20475;-75
2023/10/25 05:44:08;;;;;;;5.53;4.90;;;;;;;8.20;100.00;153464.97;5017753;28;20511;-74
2023/10/25 05:46:35;;;;;;;5.87;5.23;;;;;;;8.17;100.00;153457.19;5019079;28;21269;-74
2023/10/25 05:49:02;;;;;;;6.47;5.10;;;;;;;8.18;100.00;153459.81;5020829;28;20513;-74
2023/10/25 05:51:29;;;;;;;6.37;5.33;;;;;;;8.17;100.00;153457.19;5002758;28;20805;-75
2023/10/25 05:53:56;;;;;;;5.20;4.50;;;;;;;8.15;100.00;153452.03;5008002;28;20452;-74
2023/10/25 05:56:26;;;;;;;6.57;5.33;;;;;;;8.14;100.00;153449.44;5021592;28;20459;-75
2023/10/25 05:58:54;;;;;;;6.17;4.97;;;;;;;8.19;100.00;153462.38;5016398;28;20475;-74
2023/10/25 06:01:24;;;;;;;5.97;4.90;;;;;;;8.22;100.00;153471.44;5017784;28;20472;-74
2023/10/25 06:03:52;;;;;;;6.60;5.60;;;;;;;8.22;100.00;153470.13;5001299;28;21003;-74
2023/10/25 06:06:20;;;;;;;6.30;5.40;;;;;;;8.19;100.00;153463.66;5020833;28;20452;-74
2023/10/25 06:08:47;;;;;;;5.40;4.67;;;;;;;8.23;100.00;153472.72;5006365;28;20456;-75
2023/10/25 06:11:15;;;;;;;5.70;4.73;;;;;;;8.25;100.00;153477.88;5017035;28;20972;-76
2023/10/25 06:13:42;;;;;;;7.17;5.80;;;;;;;8.26;100.00;153481.75;5003517;28;21048;-78
2023/10/25 06:16:10;;;;;;;5.97;5.10;;;;;;;8.28;100.00;153487.00;5002726;28;20484;-74
2023/10/25 06:18:37;;;;;;;5.90;4.60;;;;;;;8.30;100.00;153490.84;5000817;28;20487;-75
2023/10/25 06:21:03;;;;;;;6.10;5.50;;;;;;;8.33;100.00;153499.91;5022738;28;20801;-74
2023/10/25 06:23:30;;;;;;;6.87;5.60;;;;;;;8.36;100.00;153507.69;5019454;28;20443;-74
2023/10/25 06:25:56;;;;;;;6.97;5.67;;;;;;;8.37;100.00;153510.22;5007152;28;20470;-74
2023/10/25 06:28:23;;;;;;;6.93;5.73;;;;;;;8.37;100.00;153510.22;5022167;28;20515;-74
2023/10/25 06:30:49;;;;;;;5.97;5.00;;;;;;;8.39;100.00;153515.38;5022725;28;20522;-74
2023/10/25 06:33:18;;;;;;;7.07;5.77;;;;;;;8.38;100.00;153512.84;4990501;28;20583;-73
2023/10/25 06:35:45;;;;;;;6.60;5.60;;;;;;;8.40;100.00;153516.69;5016825;28;20459;-74
2023/10/25 06:38:13;;;;;;;5.63;4.90;;;;;;;8.42;100.00;153521.84;5008277;28;20568;-74
2023/10/25 06:40:40;;;;;;;6.77;5.13;;;;;;;8.40;100.00;153518.00;5004753;28;20476;-74
2023/10/25 06:43:07;;;;;;;5.53;4.37;;;;;;;8.41;100.00;153520.59;5020138;28;20470;-73
2023/10/25 06:45:34;;;;;;;5.60;5.00;;;;;;;8.44;100.00;153528.34;5019001;28;20460;-74
2023/10/25 06:48:01;;;;;;;6.30;5.20;;;;;;;8.67;100.00;153585.22;5021667;28;20498;-74
2023/10/25 06:50:30;;;;;;;6.63;5.90;;;;;;;9.23;100.00;153728.75;5019232;28;20460;-74
2023/10/25 06:52:57;;;;;;;7.73;6.63;;;;;;;9.76;100.00;153867.19;5020030;28;20515;-76
2023/10/25 06:55:24;;;;;;;7.97;7.00;;;;;;;10.27;100.00;153996.66;5020711;28;20910;-75
2023/10/25 06:57:51;;;;;;;7.20;5.80;;;;;;;10.61;100.00;154083.38;4999665;28;20455;-75
2023/10/25 07:00:19;;;;;;;8.53;6.03;;;;;;;11.17;100.00;154228.44;4990913;28;21009;-75
2023/10/25 07:02:51;;;;;;;5.90;5.30;;;;;;;11.66;100.00;154352.78;5018749;28;20456;-74
2023/10/25 07:05:20;;;;;;;5.37;4.50;;;;;;;11.94;100.00;154426.72;5018296;28;20546;-74
2023/10/25 07:07:50;;;;;;;5.20;4.70;;;;;;;12.34;100.00;154527.88;5016633;28;20456;-74
2023/10/25 07:10:17;;;;;;;4.80;4.00;;;;;;;12.69;100.00;154618.63;5016947;28;20654;-75
2023/10/25 07:12:44;;;;;;;5.17;4.67;;;;;;;12.86;100.00;154662.72;5021794;28;20461;-76
2023/10/25 07:15:11;;;;;;;4.83;4.23;;;;;;;12.70;100.00;154622.53;5017604;28;21100;-76
2023/10/25 07:17:38;;;;;;;4.87;4.37;;;;;;;12.75;100.00;154635.50;5018698;28;20847;-74
2023/10/25 07:20:05;;;;;;;5.00;4.40;;;;;;;13.22;100.00;154756.19;4998866;28;20467;-76
2023/10/25 07:22:32;;;;;;;4.33;3.93;;;;;;;13.49;100.00;154823.66;5022298;28;20479;-76
2023/10/25 07:25:00;;;;;;;4.27;3.87;;;;;;;13.83;100.00;154911.91;5015522;28;20822;-76
2023/10/25 07:27:27;;;;;;;4.43;3.97;;;;;;;14.29;100.00;155031.38;5006087;28;20819;-76
2023/10/25 07:29:53;;;;;;;4.57;4.17;;;;;;;14.70;99.86;155135.28;5020107;28;20459;-76
2023/10/25 07:32:20;;;;;;;4.17;3.77;;;;;;;14.97;98.22;155205.44;5019398;28;20538;-77
2023/10/25 07:34:47;;;;;;;4.10;3.70;;;;;;;15.41;97.21;155318.53;5018973;28;20813;-76
2023/10/25 07:37:15;;;;;;;4.83;4.33;;;;;;;15.76;94.65;155410.84;5017401;28;20456;-75
2023/10/25 07:39:41;;;;;;;4.10;3.70;;;;;;;15.89;91.48;155442.00;5018592;28;20554;-76
2023/10/25 07:42:09;;;;;;;4.57;3.87;;;;;;;16.10;92.10;155496.63;5016864;28;20476;-76
2023/10/25 07:44:36;;;;;;;4.70;3.73;;;;;;;15.74;91.80;155405.66;5022634;28;20863;-76
2023/10/25 07:47:03;;;;;;;4.10;3.70;;;;;;;15.01;93.40;155217.13;5019497;28;20478;-76
2023/10/25 07:49:29;;;;;;;4.77;4.10;;;;;;;14.31;98.20;155036.59;5006340;28;20559;-76
2023/10/25 07:51:56;;;;;;;4.27;3.87;;;;;;;13.76;100.00;154895.06;5016284;28;20971;-75
2023/10/25 07:54:22;;;;;;;3.50;3.20;;;;;;;13.37;100.00;154795.09;5023578;28;20890;-76
2023/10/25 07:56:49;;;;;;;4.60;4.20;;;;;;;13.19;100.00;154748.38;5005985;28;20451;-76
2023/10/25 07:59:17;;;;;;;4.13;3.73;;;;;;;12.86;100.00;154661.44;5014988;28;21265;-76
2023/10/25 08:01:44;;;;;;;4.77;4.37;;;;;;;12.59;100.00;154594.00;5016607;28;20471;-76
2023/10/25 08:04:11;;;;;;;4.33;3.93;;;;;;;12.40;100.00;154543.41;5019721;28;20554;-76
2023/10/25 08:06:38;;;;;;;4.80;4.40;;;;;;;12.10;100.00;154468.19;5018737;28;20777;-76
2023/10/25 08:09:04;;;;;;;5.20;4.13;;;;;;;11.92;100.00;154421.53;5017316;28;20991;-75
2023/10/25 08:11:34;;;;;;;5.20;4.70;;;;;;;11.84;100.00;154400.78;5017335;28;20451;-75
2023/10/25 08:14:01;;;;;;;5.23;4.70;;;;;;;11.75;100.00;154377.50;5015792;28;21288;-75
2023/10/25 08:16:28;;;;;;;5.20;4.70;;;;;;;11.68;100.00;154357.97;5022488;28;20451;-75
2023/10/25 08:18:55;;;;;;;5.97;4.60;;;;;;;11.68;100.00;154359.28;5004672;28;20453;-75
2023/10/25 08:21:22;;;;;;;5.67;5.07;;;;;;;11.67;100.00;154355.41;5018206;28;20478;-75
2023/10/25 08:23:51;;;;;;;5.93;5.17;;;;;;;11.77;100.00;154382.66;4999939;28;20447;-75
2023/10/25 08:26:18;;;;;;;7.10;6.40;;;;;;;11.69;100.00;154360.63;5016035;28;20463;-75
2023/10/25 08:28:44;;;;;;;5.90;5.17;;;;;;;11.73;100.00;154372.28;4999871;28;20902;-75
2023/10/25 08:31:12;;;;;;;5.23;4.60;;;;;;;11.75;100.00;154377.50;4990431;28;20450;-75
2023/10/25 08:33:40;;;;;;;6.27;5.67;;;;;;;11.71;100.00;154365.81;5020075;28;20447;-77
2023/10/25 08:36:07;;;;;;;5.83;5.23;;;;;;;11.67;100.00;154355.41;5020554;28;20463;-75
2023/10/25 08:38:35;;;;;;;5.90;5.40;;;;;;;11.69;100.00;154360.63;5016636;28;20462;-74
2023/10/25 08:41:02;;;;;;;5.90;5.30;;;;;;;11.66;100.00;154354.09;5017512;28;20467;-75
2023/10/25 08:43:29;;;;;;;5.23;4.73;;;;;;;11.59;100.00;154335.97;5016413;28;20455;-75
2023/10/25 08:45:56;;;;;;;7.60;5.67;;;;;;;11.58;100.00;154333.38;5019639;28;20463;-75
2023/10/25 08:48:23;;;;;;;6.53;5.70;;;;;;;11.61;100.00;154341.16;5017948;28;20477;-76
2023/10/25 08:50:51;;;;;;;6.00;5.40;;;;;;;11.62;100.00;154345.00;5005996;28;20455;-75
2023/10/25 08:53:21;;;;;;;7.13;5.93;;;;;;;11.60;100.00;154338.53;5021545;28;20525;-75
2023/10/25 08:55:51;;;;;;;6.30;5.70;;;;;;;11.60;100.00;154338.53;5016178;28;20939;-75
2023/10/25 08:58:18;;;;;;;5.73;4.90;;;;;;;11.60;100.00;154338.53;5016687;28;20445;-75
2023/10/25 09:00:45;;;;;;;6.77;5.57;;;;;;;11.60;100.00;154338.53;5020417;28;20535;-75
2023/10/25 09:03:39;;;;;;;6.07;5.47;;;;;;;11.61;100.00;154341.16;5013994;28;20557;-75
2023/10/25 09:06:08;;;;;;;9.53;5.60;;;;;;;11.61;100.00;154341.16;5016983;28;20487;-75
2023/10/25 09:08:35;;;;;;;6.30;5.70;;;;;;;11.59;100.00;154337.28;5016250;28;20447;-75
2023/10/25 09:11:03;;;;;;;6.83;5.80;;;;;;;11.59;100.00;154337.28;5018191;28;20895;-75
2023/10/25 09:13:30;;;;;;;5.83;5.33;;;;;;;11.51;100.00;154315.25;5016814;28;20452;-75
2023/10/25 09:16:03;;;;;;;6.57;5.33;;;;;;;11.49;100.00;154311.31;4998251;28;20497;-75
2023/10/25 09:18:31;;;;;;;5.53;5.03;;;;;;;11.48;100.00;154307.47;5003764;28;20448;-75
2023/10/25 09:20:57;;;;;;;5.80;5.20;;;;;;;11.44;100.00;154297.06;4999652;28;20548;-75
2023/10/25 09:23:25;;;;;;;8.50;4.80;;;;;;;11.46;100.00;154303.53;5001305;28;20456;-75
2023/10/25 09:25:52;;;;;;;6.47;5.77;;;;;;;11.45;100.00;154300.97;4994738;28;22080;-75
2023/10/25 09:28:27;;;;;;;5.57;5.07;;;;;;;11.48;100.00;154308.75;5004722;28;20456;-75
2023/10/25 09:30:54;;;;;;;5.60;5.00;;;;;;;11.52;100.00;154317.81;4995145;28;20564;-76
2023/10/25 09:33:20;;;;;;;7.03;5.23;;;;;;;11.55;100.00;154325.59;5004349;28;20449;-75
2023/10/25 09:35:48;;;;;;;5.80;5.27;;;;;;;11.54;100.00;154323.03;4989482;28;20456;-75
2023/10/25 09:38:14;;;;;;;7.10;5.60;;;;;;;11.54;100.00;154323.03;4982987;28;20463;-75
2023/10/25 09:40:43;;;;;;;5.33;4.83;;;;;;;11.56;100.00;154329.50;4992602;28;20567;-75
2023/10/25 09:43:15;;;;;;;6.70;5.20;;;;;;;11.55;100.00;154325.59;4988250;28;20460;-75
2023/10/25 09:45:57;;;;;;;5.80;4.60;;;;;;;11.55;100.00;154326.88;4972348;28;20460;-75
2023/10/25 09:48:24;;;;;;;5.43;4.93;;;;;;;11.59;100.00;154335.97;4998231;28;20445;-75
2023/10/25 09:51:14;;;;;;;4.97;4.47;;;;;;;11.63;100.00;154346.31;4989792;28;21102;-75
2023/10/25 09:53:45;;;;;;;8.20;5.00;;;;;;;11.65;100.00;154350.22;4972180;28;20820;-75
2023/10/25 09:56:14;;;;;;;6.10;5.40;;;;;;;11.67;100.00;154356.72;4999654;28;20888;-75
2023/10/25 09:58:41;;;;;;;4.70;4.20;;;;;;;11.72;100.00;154369.72;5000262;28;20452;-75
2023/10/25 10:01:08;;;;;;;5.67;5.07;;;;;;;11.75;100.00;154376.19;5003176;28;20464;-75
2023/10/25 10:03:44;;;;;;;5.50;4.97;;;;;;;11.82;100.00;154394.31;5002032;28;20524;-75
2023/10/25 10:06:22;;;;;;;5.00;4.57;;;;;;;11.90;100.00;154415.06;4995889;28;20540;-76
2023/10/25 10:08:53;;;;;;;5.47;4.97;;;;;;;11.97;100.00;154433.19;5004647;28;20444;-75
2023/10/25 10:11:25;;;;;;;5.00;4.50;;;;;;;12.00;100.00;154440.97;4998421;28;20449;-75
2023/10/25 10:14:24;;;;;;;5.07;4.57;;;;;;;12.05;100.00;154455.25;4999316;28;20450;-75
2023/10/25 10:16:51;;;;;;;4.80;4.40;;;;;;;12.10;100.00;154466.88;5020153;28;20941;-75
2023/10/25 10:19:17;;;;;;;5.63;5.00;;;;;;;12.12;100.00;154473.41;5009715;28;20463;-75
2023/10/25 10:22:06;;;;;;;4.63;4.17;;;;;;;12.17;100.00;154486.38;5018920;28;20476;-75
2023/10/25 10:24:41;;;;;;;4.87;4.37;;;;;;;12.21;100.00;154496.72;5017934;28;21234;-75
2023/10/25 10:27:09;;;;;;;5.37;4.53;;;;;;;12.30;100.00;154517.47;5017843;28;20459;-75
2023/10/25 10:29:43;;;;;;;5.37;4.87;;;;;;;12.33;100.00;154525.25;5016233;28;20451;-75
2023/10/25 10:32:10;;;;;;;4.97;3.70;;;;;;;12.35;100.00;154530.44;5018982;28;20834;-75
2023/10/25 10:34:39;;;;;;;4.50;4.10;;;;;;;12.39;100.00;154540.84;5018025;28;20460;-75
2023/10/25 10:37:07;;;;;;;4.33;3.90;;;;;;;12.42;100.00;154548.56;5017499;28;20456;-75
2023/10/25 10:39:33;;;;;;;4.27;3.70;;;;;;;12.46;100.00;154558.97;5008213;28;20448;-75
2023/10/25 10:42:01;;;;;;;4.33;3.53;;;;;;;12.50;100.00;154569.31;5019793;28;20490;-75
2023/10/25 10:44:29;;;;;;;4.40;3.60;;;;;;;12.55;100.00;154582.34;5017855;28;20517;-75
2023/10/25 10:46:59;;;;;;;4.47;3.57;;;;;;;12.60;100.00;154595.28;5017674;28;20826;-75
2023/10/25 10:49:30;;;;;;;4.00;3.30;;;;;;;12.66;100.00;154610.81;5019245;28;20448;-75
2023/10/25 10:51:58;;;;;;;3.10;2.80;;;;;;;12.72;100.00;154626.41;5018049;28;20449;-75
2023/10/25 10:54:25;;;;;;;4.50;4.10;;;;;;;12.75;100.00;154635.50;5018330;28;20447;-75
2023/10/25 10:56:51;;;;;;;3.77;3.47;;;;;;;12.79;100.00;154644.53;5020004;28;20456;-75
2023/10/25 10:59:18;;;;;;;3.60;3.27;;;;;;;12.83;100.00;154654.94;5015623;28;20458;-75
2023/10/25 11:01:46;;;;;;;3.13;2.83;;;;;;;12.89;100.00;154670.53;5018115;28;20472;-75
2023/10/25 11:04:13;;;;;;;4.03;3.07;;;;;;;12.92;100.00;154678.25;5023937;28;20452;-74
2023/10/25 11:06:40;;;;;;;4.10;3.30;;;;;;;12.93;100.00;154680.88;5006951;28;20456;-75
2023/10/25 11:09:08;;;;;;;3.97;3.30;;;;;;;12.99;100.00;154696.47;5026370;28;20486;-75
2023/10/25 11:11:35;;;;;;;6.07;3.30;;;;;;;13.02;100.00;154704.25;5020528;28;20543;-75
2023/10/25 11:14:02;;;;;;;4.00;2.87;;;;;;;13.06;100.00;154714.59;5022764;28;20471;-75
2023/10/25 11:16:30;;;;;;;4.20;3.80;;;;;;;13.08;100.00;154719.81;5023168;28;20444;-75
2023/10/25 11:19:07;;;;;;;3.30;3.00;;;;;;;13.08;100.00;154719.81;5018063;28;20586;-75
2023/10/25 11:21:34;;;;;;;3.53;3.23;;;;;;;13.08;100.00;154719.81;5022548;28;20455;-75